Time;durP1;ratioP1;P1;durP2;ratioP2;P2;SDS_P1;SDS_P2;PMS_P1;PMS_P2;Temp;Humidity;BMP_temperature;BMP_pressure;BME280_temperature;BME280_humidity;BME280_pressure;Samples;Min_cycle;Max_cycle;Signal;HPM_P1;HPM_P2
2023/03/29 00:00:58;;;;;;;3.70;2.58;;;;;;;3.33;100.00;93250.72;2531495;23;20010;-84
2023/03/29 00:02:00;;;;;;;4.30;2.53;;;;;;;3.35;100.00;93249.22;2508160;23;20034;-84
2023/03/29 00:03:02;;;;;;;3.60;2.40;;;;;;;3.35;100.00;93249.22;2507974;23;20123;-85
2023/03/29 00:04:03;;;;;;;5.30;2.58;;;;;;;3.42;100.00;93249.25;2519999;23;20035;-85
2023/03/29 00:05:05;;;;;;;2.88;2.42;;;;;;;3.41;100.00;93254.94;2518712;23;20006;-85
2023/03/29 00:06:06;;;;;;;3.08;2.22;;;;;;;3.38;100.00;93251.16;2519469;23;20038;-85
2023/03/29 00:07:08;;;;;;;2.67;2.38;;;;;;;3.38;100.00;93253.78;2507507;23;20449;-86
2023/03/29 00:08:13;;;;;;;4.70;2.65;;;;;;;3.32;100.00;93249.94;2495306;23;20427;-85
2023/03/29 00:09:14;;;;;;;4.53;2.85;;;;;;;3.33;100.00;93245.44;2509130;23;20011;-85
2023/03/29 00:10:15;;;;;;;3.97;2.63;;;;;;;3.36;100.00;93248.09;2518474;23;20098;-85
2023/03/29 00:11:16;;;;;;;2.97;2.75;;;;;;;3.35;100.00;93240.56;2507658;23;20339;-85
2023/03/29 00:12:18;;;;;;;3.55;2.45;;;;;;;3.27;100.00;93229.91;2506862;23;20017;-85
2023/03/29 00:13:19;;;;;;;3.00;2.70;;;;;;;3.35;100.00;93241.31;2507685;23;20014;-84
2023/03/29 00:14:22;;;;;;;3.45;2.60;;;;;;;3.34;100.00;93237.16;2507663;23;20427;-85
2023/03/29 00:15:23;;;;;;;3.75;2.47;;;;;;;3.37;100.00;93230.34;2519680;23;20097;-85
2023/03/29 00:16:24;;;;;;;2.45;2.25;;;;;;;3.40;100.00;93232.28;2511441;23;20026;-83
2023/03/29 00:17:25;;;;;;;3.63;2.50;;;;;;;3.49;100.00;93233.47;2516044;23;19991;-84
2023/03/29 00:18:26;;;;;;;3.70;2.70;;;;;;;3.40;100.00;93224.34;2515126;23;19990;-84
2023/03/29 00:19:27;;;;;;;5.80;2.70;;;;;;;3.42;100.00;93227.38;2507395;23;20003;-84
2023/03/29 00:20:28;;;;;;;3.65;2.60;;;;;;;3.47;100.00;93227.81;2519849;23;20393;-85
2023/03/29 00:21:30;;;;;;;3.58;3.10;;;;;;;3.42;100.00;93230.78;2519375;23;20346;-85
2023/03/29 00:22:31;;;;;;;4.78;3.00;;;;;;;3.43;100.00;93226.28;2506723;23;20007;-85
2023/03/29 00:23:32;;;;;;;3.42;2.53;;;;;;;3.33;100.00;93225.03;2507387;23;20038;-84
2023/03/29 00:24:33;;;;;;;4.60;2.75;;;;;;;3.34;100.00;93226.59;2506987;23;20514;-85
2023/03/29 00:25:35;;;;;;;5.13;2.85;;;;;;;3.38;100.00;93223.94;2507161;23;20015;-84
2023/03/29 00:26:36;;;;;;;3.10;2.60;;;;;;;3.31;100.00;93235.22;2519269;23;20088;-85
2023/03/29 00:27:37;;;;;;;3.10;2.80;;;;;;;3.32;100.00;93230.72;2507380;23;20060;-85
2023/03/29 00:28:40;;;;;;;2.72;2.50;;;;;;;3.28;100.00;93215.59;2495434;23;20003;-85
2023/03/29 00:29:41;;;;;;;2.72;2.40;;;;;;;3.23;100.00;93225.72;2518831;23;20066;-84
2023/03/29 00:30:42;;;;;;;5.07;2.97;;;;;;;3.22;100.00;93230.25;2519399;23;20532;-85
2023/03/29 00:31:50;;;;;;;5.20;2.72;;;;;;;3.40;100.00;93227.75;2518963;23;20010;-86
2023/03/29 00:32:51;;;;;;;3.28;2.67;;;;;;;3.43;100.00;93232.31;2508221;23;20011;-85
2023/03/29 00:33:54;;;;;;;2.65;2.33;;;;;;;3.41;100.00;93237.19;2507418;23;20527;-84
2023/03/29 00:34:55;;;;;;;3.33;2.30;;;;;;;3.29;100.00;93237.47;2496243;23;20019;-85
2023/03/29 00:35:56;;;;;;;4.50;3.22;;;;;;;3.26;100.00;93235.56;2507643;23;20010;-85
2023/03/29 00:36:58;;;;;;;4.22;2.75;;;;;;;3.25;100.00;93232.19;2519422;23;20006;-86
2023/03/29 00:38:31;;;;;;;4.43;2.95;;;;;;;3.36;100.00;93240.19;2507367;23;20260;-84
2023/03/29 00:39:32;;;;;;;3.00;2.53;;;;;;;3.31;100.00;93237.13;2513465;23;20065;-84
2023/03/29 00:40:40;;;;;;;3.25;2.67;;;;;;;3.34;100.00;93239.03;2507404;23;20003;-85
2023/03/29 00:41:41;;;;;;;3.20;2.60;;;;;;;3.53;100.00;93247.47;2520323;23;20065;-85
2023/03/29 00:42:45;;;;;;;3.58;3.00;;;;;;;3.38;100.00;93239.78;2506715;23;20074;-84
2023/03/29 00:43:52;;;;;;;3.85;2.80;;;;;;;3.28;100.00;93238.59;2497222;23;20011;-84
2023/03/29 00:45:08;;;;;;;4.22;2.47;;;;;;;3.56;100.00;93242.56;2510155;23;20006;-84
2023/03/29 00:46:09;;;;;;;3.45;2.70;;;;;;;3.50;100.00;93250.09;2510358;23;20089;-84
2023/03/29 00:47:10;;;;;;;4.70;2.70;;;;;;;3.42;100.00;93241.34;2495938;23;20034;-84
2023/03/29 00:48:17;;;;;;;3.58;2.95;;;;;;;3.32;100.00;93241.28;2495375;23;20376;-84
2023/03/29 00:49:18;;;;;;;4.18;2.88;;;;;;;3.28;100.00;93238.59;2507871;23;20006;-83
2023/03/29 00:50:42;;;;;;;3.78;3.00;;;;;;;3.53;100.00;93236.13;2494993;23;20060;-85
2023/03/29 00:51:44;;;;;;;2.78;2.45;;;;;;;3.36;100.00;93224.31;2516545;23;20010;-83
2023/03/29 00:52:50;;;;;;;5.25;2.65;;;;;;;3.42;100.00;93217.56;2519697;23;20017;-83
2023/03/29 00:53:56;;;;;;;3.10;2.70;;;;;;;3.38;100.00;93216.03;2531886;23;20009;-84
2023/03/29 00:55:00;;;;;;;3.97;2.60;;;;;;;3.41;100.00;93218.69;2543436;23;20001;-84
2023/03/29 00:56:06;;;;;;;5.30;3.13;;;;;;;3.31;100.00;93216.00;2518783;23;20022;-84
2023/03/29 00:57:09;;;;;;;3.38;3.08;;;;;;;3.36;100.00;93213.00;2532379;23;20009;-84
2023/03/29 00:58:12;;;;;;;3.90;2.72;;;;;;;3.29;100.00;93216.34;2518788;23;20012;-84
2023/03/29 00:59:22;;;;;;;3.13;2.75;;;;;;;3.43;100.00;93224.38;2495401;23;20015;-84
2023/03/29 01:00:30;;;;;;;3.33;3.03;;;;;;;3.34;100.00;93229.22;2498654;23;20011;-84
2023/03/29 01:02:05;;;;;;;5.68;2.90;;;;;;;3.24;100.00;93235.94;2509238;23;20002;-84
2023/03/29 01:03:12;;;;;;;3.38;2.80;;;;;;;3.53;100.00;93217.66;2499706;23;20093;-85
2023/03/29 01:04:31;;;;;;;4.93;2.28;;;;;;;3.55;100.00;93225.94;2520251;23;20078;-84
2023/03/29 01:05:39;;;;;;;3.42;2.50;;;;;;;3.54;100.00;93241.06;2511008;23;20014;-85
2023/03/29 01:06:42;;;;;;;2.67;2.33;;;;;;;3.59;100.00;93218.06;2510460;23;20006;-85
2023/03/29 01:07:52;;;;;;;1.20;0.88;;;;;;;4.19;96.13;93205.13;2507964;23;20002;-84
2023/03/29 01:09:00;;;;;;;1.58;0.90;;;;;;;4.51;88.84;93213.16;2498709;23;20007;-84
2023/03/29 01:10:11;;;;;;;1.17;0.77;;;;;;;4.53;94.71;93199.56;2498062;23;20011;-84
2023/03/29 01:11:28;;;;;;;1.35;0.70;;;;;;;4.80;84.47;93197.34;2509668;23;20070;-84
2023/03/29 01:12:34;;;;;;;0.85;0.68;;;;;;;4.90;83.88;93198.47;2513533;23;20449;-83
2023/03/29 01:13:44;;;;;;;1.13;0.80;;;;;;;5.01;79.82;93236.34;2520143;23;20010;-85
2023/03/29 01:14:53;;;;;;;3.35;1.20;;;;;;;5.23;76.81;93229.94;2508623;23;20581;-84
2023/03/29 01:15:56;;;;;;;2.33;0.60;;;;;;;5.19;79.92;93231.06;2520448;23;20337;-83
2023/03/29 01:16:58;;;;;;;1.02;0.68;;;;;;;5.23;79.29;93218.56;2507486;23;20014;-84
2023/03/29 01:18:00;;;;;;;0.85;0.73;;;;;;;5.19;83.13;93221.22;2507871;23;20013;-86
2023/03/29 01:19:03;;;;;;;1.27;0.57;;;;;;;5.11;85.61;93203.03;2507470;23;20365;-84
2023/03/29 01:20:13;;;;;;;1.90;0.65;;;;;;;5.10;86.82;93220.09;2507453;23;20263;-85
2023/03/29 01:21:31;;;;;;;0.70;0.70;;;;;;;5.26;83.63;93220.44;2530741;23;20009;-85
2023/03/29 01:23:07;;;;;;;1.27;0.70;;;;;;;5.18;90.28;93216.28;2522486;23;20010;-84
2023/03/29 01:24:40;;;;;;;0.95;0.50;;;;;;;5.25;91.58;93218.94;2513805;23;20010;-85
2023/03/29 01:26:10;;;;;;;4.30;0.70;;;;;;;5.27;90.75;93214.03;2507937;23;20386;-84
2023/03/29 01:27:16;;;;;;;1.98;0.50;;;;;;;5.36;86.41;93203.81;2517988;23;20033;-84
2023/03/29 01:28:21;;;;;;;0.95;0.73;;;;;;;5.35;90.55;93189.00;2508109;23;20579;-85
2023/03/29 01:29:34;;;;;;;2.33;0.70;;;;;;;5.13;99.00;93188.28;2508156;23;20112;-84
2023/03/29 01:30:52;;;;;;;1.35;0.60;;;;;;;5.22;95.93;93177.28;2509268;23;19999;-86
2023/03/29 01:32:17;;;;;;;0.70;0.70;;;;;;;5.15;95.12;93148.91;2509643;23;20017;-84
2023/03/29 01:33:25;;;;;;;2.03;0.77;;;;;;;5.31;86.24;93156.47;2516521;23;20014;-85
2023/03/29 01:34:42;;;;;;;3.20;0.73;;;;;;;5.48;87.30;93142.41;2508238;23;20399;-85
2023/03/29 01:35:50;;;;;;;1.40;0.80;;;;;;;5.40;88.43;93148.13;2513564;23;20435;-84
2023/03/29 01:37:00;;;;;;;2.17;0.55;;;;;;;5.29;87.44;93142.84;2520550;23;20137;-84
2023/03/29 01:38:14;;;;;;;1.23;0.90;;;;;;;5.15;92.39;93148.16;2508879;23;20469;-84
2023/03/29 01:39:17;;;;;;;1.38;0.70;;;;;;;5.11;96.05;93150.06;2509047;23;20006;-85
2023/03/29 01:40:19;;;;;;;1.58;0.60;;;;;;;5.01;98.62;93151.59;2530245;23;20009;-84
2023/03/29 01:41:22;;;;;;;0.55;0.55;;;;;;;4.99;98.73;93159.88;2507724;23;20041;-84
2023/03/29 01:42:46;;;;;;;2.88;0.68;;;;;;;4.98;92.48;93149.69;2519404;23;20338;-85
2023/03/29 01:44:00;;;;;;;0.82;0.70;;;;;;;5.21;85.53;93159.88;2510858;23;20010;-84
2023/03/29 01:45:13;;;;;;;0.57;0.45;;;;;;;5.14;87.39;93157.25;2500193;23;20445;-84
2023/03/29 01:46:25;;;;;;;1.30;0.70;;;;;;;5.27;86.83;93161.03;2500261;23;20366;-84
2023/03/29 01:47:38;;;;;;;2.08;0.80;;;;;;;5.21;87.40;93159.88;2509861;23;20006;-85
2023/03/29 01:49:09;;;;;;;0.60;0.45;;;;;;;5.17;89.07;93146.63;2499951;23;20015;-84
2023/03/29 01:50:41;;;;;;;1.83;0.60;;;;;;;5.38;79.47;93148.50;2500877;23;20017;-85
2023/03/29 01:51:50;;;;;;;0.88;0.55;;;;;;;5.26;86.30;93148.91;2512930;23;20087;-84
2023/03/29 01:53:01;;;;;;;1.38;0.60;;;;;;;5.38;79.88;93145.84;2522228;23;20066;-85
2023/03/29 01:54:08;;;;;;;2.05;0.60;;;;;;;5.34;83.26;93139.81;2530528;23;20048;-84
2023/03/29 01:55:23;;;;;;;0.63;0.63;;;;;;;5.33;86.18;93137.53;2520584;23;20054;-85
2023/03/29 01:56:28;;;;;;;1.63;0.70;;;;;;;5.27;87.99;93137.94;2518807;23;20010;-85
2023/03/29 01:57:33;;;;;;;0.95;0.85;;;;;;;5.10;94.02;93138.72;2495883;23;20014;-84
2023/03/29 01:58:39;;;;;;;1.98;0.85;;;;;;;5.01;93.44;93135.69;2508661;23;20427;-84
2023/03/29 01:59:44;;;;;;;2.22;0.60;;;;;;;4.95;91.10;93139.84;2519409;23;20331;-85
2023/03/29 02:00:48;;;;;;;0.70;0.70;;;;;;;4.92;91.96;93144.00;2530484;23;20313;-86
2023/03/29 02:01:52;;;;;;;1.10;0.73;;;;;;;4.85;94.16;93140.59;2519540;23;20262;-84
2023/03/29 02:02:59;;;;;;;1.00;0.70;;;;;;;4.82;95.75;93139.47;2507598;23;20030;-85
2023/03/29 02:04:03;;;;;;;1.95;0.70;;;;;;;4.79;98.91;93140.22;2509409;23;20386;-85
2023/03/29 02:05:08;;;;;;;0.55;0.55;;;;;;;4.72;98.23;93153.44;2519161;23;20007;-84
2023/03/29 02:06:12;;;;;;;1.38;0.70;;;;;;;4.70;100.00;93158.38;2520053;23;20049;-85
2023/03/29 02:07:16;;;;;;;1.45;0.80;;;;;;;4.69;100.00;93162.16;2531921;23;20016;-85
2023/03/29 02:08:20;;;;;;;4.82;0.80;;;;;;;4.61;100.00;93161.41;2519119;23;20107;-84
2023/03/29 02:09:22;;;;;;;2.20;0.80;;;;;;;4.65;100.00;93172.72;2507905;23;20090;-83
2023/03/29 02:10:23;;;;;;;3.30;0.60;;;;;;;4.62;100.00;93168.19;2518108;23;20006;-85
2023/03/29 02:11:26;;;;;;;1.13;0.95;;;;;;;4.61;100.00;93176.50;2518688;23;20070;-85
2023/03/29 02:12:27;;;;;;;2.53;1.38;;;;;;;4.63;100.00;93175.00;2508073;23;20006;-85
2023/03/29 02:13:28;;;;;;;1.80;1.38;;;;;;;4.59;100.00;93178.78;2519099;23;20030;-84
2023/03/29 02:14:29;;;;;;;2.78;1.75;;;;;;;4.53;100.00;93175.75;2518788;23;20009;-83
2023/03/29 02:15:30;;;;;;;7.60;2.20;;;;;;;4.51;100.00;93162.88;2518237;23;20012;-84
2023/03/29 02:16:36;;;;;;;2.22;1.70;;;;;;;4.37;100.00;93165.50;2506863;23;20073;-84
2023/03/29 02:17:37;;;;;;;2.70;2.00;;;;;;;4.47;100.00;93170.03;2521061;23;20082;-85
2023/03/29 02:18:41;;;;;;;3.88;1.95;;;;;;;4.52;100.00;93169.69;2518909;23;20525;-84
2023/03/29 02:19:44;;;;;;;3.58;2.10;;;;;;;4.34;100.00;93163.59;2508294;23;20003;-85
2023/03/29 02:20:49;;;;;;;3.08;2.20;;;;;;;4.28;100.00;93170.38;2507050;23;20029;-85
2023/03/29 02:22:03;;;;;;;4.38;2.35;;;;;;;4.21;100.00;93160.53;2519019;23;20085;-85
2023/03/29 02:23:13;;;;;;;6.25;2.40;;;;;;;4.31;100.00;93164.34;2509287;23;20015;-84
2023/03/29 02:24:19;;;;;;;3.75;2.17;;;;;;;4.27;100.00;93158.28;2508802;23;20044;-84
2023/03/29 02:25:23;;;;;;;2.30;2.08;;;;;;;4.19;100.00;93157.50;2508920;23;20011;-85
2023/03/29 02:26:25;;;;;;;4.00;2.30;;;;;;;4.20;100.00;93166.19;2519324;23;20011;-84
2023/03/29 02:27:28;;;;;;;3.35;2.55;;;;;;;4.08;100.00;93155.97;2506953;23;20078;-86
2023/03/29 02:28:30;;;;;;;3.80;2.65;;;;;;;4.10;100.00;93145.78;2507122;23;20331;-84
2023/03/29 02:29:32;;;;;;;3.10;2.70;;;;;;;3.99;100.00;93153.66;2506333;23;20030;-85
2023/03/29 02:31:04;;;;;;;3.47;2.80;;;;;;;3.95;100.00;93148.38;2507129;23;20003;-83
2023/03/29 02:32:13;;;;;;;3.38;2.95;;;;;;;3.90;100.00;93161.19;2512129;23;20473;-84
2023/03/29 02:33:44;;;;;;;4.72;2.80;;;;;;;3.91;100.00;93152.91;2509688;23;20058;-84
2023/03/29 02:35:00;;;;;;;4.80;2.95;;;;;;;3.94;100.00;93152.13;2504593;23;20018;-82
2023/03/29 02:36:11;;;;;;;5.78;3.00;;;;;;;3.85;100.00;93161.53;2509687;23;20018;-83
2023/03/29 02:37:17;;;;;;;5.45;2.80;;;;;;;3.84;100.00;93167.97;2510984;23;20229;-83
2023/03/29 02:38:20;;;;;;;4.90;3.17;;;;;;;3.77;100.00;93161.50;2519666;23;20010;-83
2023/03/29 02:39:24;;;;;;;6.25;3.05;;;;;;;3.84;100.00;93160.78;2506115;23;20018;-84
2023/03/29 02:40:25;;;;;;;5.10;3.10;;;;;;;3.76;100.00;93159.25;2519614;23;20315;-83
2023/03/29 02:41:27;;;;;;;4.78;3.15;;;;;;;3.71;100.00;93167.53;2518696;23;20085;-83
2023/03/29 02:42:29;;;;;;;6.20;3.10;;;;;;;3.73;100.00;93171.31;2519485;23;20017;-84
2023/03/29 02:43:33;;;;;;;4.63;3.40;;;;;;;3.73;100.00;93170.53;2518694;23;20358;-83
2023/03/29 02:44:43;;;;;;;4.80;3.17;;;;;;;3.68;100.00;93174.31;2507812;23;20139;-83
2023/03/29 02:45:46;;;;;;;4.45;3.53;;;;;;;3.73;100.00;93162.63;2510985;23;20354;-83
2023/03/29 02:46:50;;;;;;;4.93;3.45;;;;;;;3.71;100.00;93175.47;2530833;23;20014;-83
2023/03/29 02:47:54;;;;;;;3.75;3.13;;;;;;;3.71;100.00;93170.16;2507277;23;20014;-83
2023/03/29 02:48:56;;;;;;;5.82;3.63;;;;;;;3.60;100.00;93164.06;2507507;23;20061;-84
2023/03/29 02:49:58;;;;;;;4.65;3.30;;;;;;;3.60;100.00;93153.50;2507389;23;20011;-84
2023/03/29 02:51:04;;;;;;;4.07;3.50;;;;;;;3.57;100.00;93148.97;2496008;23;20030;-84
2023/03/29 02:52:10;;;;;;;4.90;3.42;;;;;;;3.56;100.00;93144.78;2497444;23;20040;-84
2023/03/29 02:53:23;;;;;;;7.28;3.45;;;;;;;3.63;100.00;93131.63;2497225;23;20094;-84
2023/03/29 02:54:28;;;;;;;4.55;3.30;;;;;;;3.73;100.00;93129.03;2508775;23;20687;-84
2023/03/29 02:55:33;;;;;;;4.90;3.53;;;;;;;3.72;100.00;93134.66;2518606;23;20010;-84
2023/03/29 02:56:48;;;;;;;3.67;3.22;;;;;;;3.75;100.00;93137.34;2508092;23;20038;-84
2023/03/29 02:57:49;;;;;;;5.57;3.22;;;;;;;3.67;100.00;93140.31;2500919;23;20067;-85
2023/03/29 02:58:50;;;;;;;6.85;3.33;;;;;;;3.56;100.00;93134.22;2494467;23;20007;-84
2023/03/29 02:59:56;;;;;;;5.97;3.25;;;;;;;3.49;100.00;93138.34;2495136;23;20003;-84
2023/03/29 03:00:59;;;;;;;5.43;3.42;;;;;;;3.44;100.00;93136.06;2496602;23;20004;-84
2023/03/29 03:02:01;;;;;;;4.28;3.13;;;;;;;3.44;100.00;93138.69;2508176;23;20006;-83
2023/03/29 03:03:06;;;;;;;4.25;3.47;;;;;;;3.44;100.00;93136.06;2519011;23;20520;-84
2023/03/29 03:04:11;;;;;;;6.80;4.05;;;;;;;3.48;100.00;93138.72;2518960;23;20049;-83
2023/03/29 03:05:13;;;;;;;5.15;3.40;;;;;;;3.46;100.00;93141.72;2507922;23;20473;-85
2023/03/29 03:06:14;;;;;;;4.95;3.63;;;;;;;3.40;100.00;93142.44;2506078;23;20180;-83
2023/03/29 03:07:15;;;;;;;5.82;3.80;;;;;;;3.41;100.00;93147.34;2506028;23;20066;-84
2023/03/29 03:08:16;;;;;;;5.22;3.65;;;;;;;3.42;100.00;93153.41;2518544;23;20002;-85
2023/03/29 03:09:17;;;;;;;6.03;3.33;;;;;;;3.42;100.00;93151.50;2530924;23;20002;-85
2023/03/29 03:10:18;;;;;;;7.75;3.92;;;;;;;3.39;100.00;93146.97;2506583;23;20011;-84
2023/03/29 03:11:20;;;;;;;5.28;3.55;;;;;;;3.38;100.00;93147.34;2519292;23;20030;-84
2023/03/29 03:12:21;;;;;;;3.95;3.58;;;;;;;3.37;100.00;93141.28;2506563;23;20406;-84
2023/03/29 03:13:22;;;;;;;6.05;3.75;;;;;;;3.38;100.00;93137.53;2506982;23;20003;-84
2023/03/29 03:14:23;;;;;;;3.95;3.50;;;;;;;3.35;100.00;93137.53;2518136;23;20011;-84
2023/03/29 03:15:25;;;;;;;5.97;3.63;;;;;;;3.37;100.00;93140.53;2506354;23;20011;-82
2023/03/29 03:16:26;;;;;;;5.45;3.30;;;;;;;3.40;100.00;93140.56;2517946;23;20122;-83
2023/03/29 03:17:27;;;;;;;5.07;3.63;;;;;;;3.36;100.00;93139.78;2518830;23;20057;-83
2023/03/29 03:18:28;;;;;;;5.10;3.78;;;;;;;3.36;100.00;93145.06;2517966;23;20275;-82
2023/03/29 03:19:29;;;;;;;4.88;3.97;;;;;;;3.34;100.00;93146.59;2506579;23;20088;-83
2023/03/29 03:20:30;;;;;;;4.60;3.60;;;;;;;3.32;100.00;93146.16;2506721;23;20412;-83
2023/03/29 03:21:32;;;;;;;5.38;3.30;;;;;;;3.48;100.00;93163.25;2506681;23;20049;-83
2023/03/29 03:22:33;;;;;;;4.47;3.83;;;;;;;3.59;100.00;93181.81;2507288;23;20013;-83
2023/03/29 03:23:35;;;;;;;4.88;3.40;;;;;;;3.69;100.00;93180.38;2507364;23;20006;-83
2023/03/29 03:24:36;;;;;;;4.95;3.67;;;;;;;3.52;100.00;93193.09;2507167;23;20094;-83
2023/03/29 03:25:37;;;;;;;4.15;3.40;;;;;;;3.74;100.00;93201.16;2494883;23;20007;-83
2023/03/29 03:26:38;;;;;;;4.50;3.33;;;;;;;3.77;100.00;93200.41;2507628;23;20479;-84
2023/03/29 03:27:48;;;;;;;3.53;3.03;;;;;;;3.63;100.00;93198.44;2507572;23;20078;-83
2023/03/29 03:28:59;;;;;;;4.15;3.60;;;;;;;3.58;100.00;93185.59;2508651;23;20538;-83
2023/03/29 03:30:07;;;;;;;4.28;2.50;;;;;;;3.50;100.00;93170.81;2498925;23;20439;-83
2023/03/29 03:31:08;;;;;;;4.90;2.90;;;;;;;3.47;100.00;93153.81;2498600;23;20047;-84
2023/03/29 03:32:11;;;;;;;3.78;2.45;;;;;;;3.54;100.00;93153.09;2507256;23;20007;-84
2023/03/29 03:33:12;;;;;;;5.13;2.60;;;;;;;3.41;100.00;93141.31;2496717;23;20481;-84
2023/03/29 03:34:13;;;;;;;2.65;2.45;;;;;;;3.36;100.00;93134.50;2495282;23;20010;-84
2023/03/29 03:35:15;;;;;;;3.50;2.92;;;;;;;3.36;100.00;93134.50;2495887;23;20015;-84
2023/03/29 03:36:16;;;;;;;5.18;2.65;;;;;;;3.28;100.00;93136.34;2495631;23;20033;-84
2023/03/29 03:37:17;;;;;;;4.07;2.75;;;;;;;3.27;100.00;93131.44;2495517;23;20033;-84
2023/03/29 03:38:18;;;;;;;3.88;2.42;;;;;;;3.24;100.00;93111.78;2507386;23;20014;-85
2023/03/29 03:39:19;;;;;;;5.13;2.55;;;;;;;3.18;100.00;93117.78;2519169;23;20006;-85
2023/03/29 03:40:20;;;;;;;4.95;2.72;;;;;;;3.22;100.00;93102.72;2531612;23;20108;-85
2023/03/29 03:41:21;;;;;;;5.80;1.92;;;;;;;3.62;100.00;93114.25;2508000;23;20009;-84
2023/03/29 03:42:23;;;;;;;4.30;2.63;;;;;;;3.68;100.00;93112.75;2507683;23;19998;-84
2023/03/29 03:43:24;;;;;;;4.13;2.38;;;;;;;3.58;100.00;93116.13;2507048;23;20034;-84
2023/03/29 03:44:25;;;;;;;4.68;2.40;;;;;;;3.52;100.00;93111.19;2507635;23;20007;-83
2023/03/29 03:45:26;;;;;;;3.05;2.70;;;;;;;3.40;100.00;93110.75;2519700;23;20002;-84
2023/03/29 03:46:27;;;;;;;2.97;2.35;;;;;;;3.33;100.00;93108.81;2519277;23;20054;-84
2023/03/29 03:47:28;;;;;;;5.40;2.70;;;;;;;3.30;100.00;93106.94;2519540;23;20081;-85
2023/03/29 03:48:29;;;;;;;6.88;2.65;;;;;;;3.28;100.00;93096.72;2518464;23;20351;-84
2023/03/29 03:49:31;;;;;;;2.67;2.33;;;;;;;3.26;100.00;93106.91;2507073;23;20007;-84
2023/03/29 03:50:32;;;;;;;6.68;2.70;;;;;;;3.20;100.00;93104.97;2508211;23;20069;-84
2023/03/29 03:51:33;;;;;;;3.97;2.30;;;;;;;3.16;100.00;93106.81;2507780;23;20007;-84
2023/03/29 03:52:34;;;;;;;3.10;2.67;;;;;;;3.16;100.00;93110.25;2507708;23;20026;-85
2023/03/29 03:53:35;;;;;;;4.15;2.38;;;;;;;3.15;100.00;93116.63;2507138;23;20018;-85
2023/03/29 03:54:36;;;;;;;3.42;2.33;;;;;;;3.13;100.00;93121.53;2495730;23;20447;-84
2023/03/29 03:55:38;;;;;;;2.67;2.20;;;;;;;3.15;100.00;93121.16;2495479;23;20011;-84
2023/03/29 03:56:39;;;;;;;7.57;2.33;;;;;;;3.13;100.00;93121.53;2507339;23;20062;-84
2023/03/29 03:57:40;;;;;;;3.92;2.58;;;;;;;3.10;100.00;93124.16;2518905;23;20006;-85
2023/03/29 03:58:42;;;;;;;6.03;2.42;;;;;;;3.07;100.00;93120.34;2519058;23;20755;-84
2023/03/29 03:59:43;;;;;;;6.68;2.20;;;;;;;3.07;100.00;93125.63;2507362;23;20007;-84
2023/03/29 04:00:47;;;;;;;5.32;2.17;;;;;;;3.10;100.00;93121.50;2506283;23;20387;-85
2023/03/29 04:01:48;;;;;;;9.25;2.22;;;;;;;3.06;100.00;93126.78;2496812;23;20086;-86
2023/03/29 04:02:52;;;;;;;5.70;2.20;;;;;;;3.02;100.00;93133.91;2508073;23;20320;-85
2023/03/29 04:03:55;;;;;;;3.80;2.05;;;;;;;3.01;100.00;93130.50;2519920;23;20445;-86
2023/03/29 04:04:56;;;;;;;3.88;2.20;;;;;;;3.02;100.00;93118.81;2519255;23;20002;-85
2023/03/29 04:06:00;;;;;;;3.17;2.33;;;;;;;2.99;100.00;93116.19;2518783;23;20013;-85
2023/03/29 04:07:03;;;;;;;3.10;2.30;;;;;;;3.03;100.00;93111.69;2519833;23;20007;-86
2023/03/29 04:08:05;;;;;;;6.90;2.47;;;;;;;2.92;100.00;93110.84;2519466;23;20006;-85
2023/03/29 04:09:08;;;;;;;4.80;2.17;;;;;;;2.92;100.00;93106.31;2507091;23;20010;-84
2023/03/29 04:10:11;;;;;;;2.72;2.53;;;;;;;2.97;100.00;93116.53;2489106;23;20014;-84
2023/03/29 04:11:12;;;;;;;3.55;2.53;;;;;;;2.95;100.00;93113.50;2500978;23;20014;-84
2023/03/29 04:12:13;;;;;;;5.22;2.28;;;;;;;2.98;100.00;93118.03;2499641;23;20053;-84
2023/03/29 04:13:14;;;;;;;2.63;2.25;;;;;;;2.99;100.00;93116.94;2490139;23;20015;-85
2023/03/29 04:14:15;;;;;;;4.75;2.35;;;;;;;2.96;100.00;93107.09;2515720;23;20200;-83
2023/03/29 04:15:19;;;;;;;4.90;3.40;;;;;;;2.95;100.00;93112.75;2511141;23;20017;-84
2023/03/29 04:16:20;;;;;;;6.60;3.25;;;;;;;2.92;100.00;93114.22;2495391;23;20034;-83
2023/03/29 04:17:21;;;;;;;3.47;3.17;;;;;;;2.91;100.00;93117.25;2503950;23;20015;-84
2023/03/29 04:18:22;;;;;;;4.40;2.78;;;;;;;2.94;100.00;93119.13;2515574;23;20486;-84
2023/03/29 04:19:23;;;;;;;5.90;2.75;;;;;;;2.88;100.00;93112.69;2503903;23;20106;-85
2023/03/29 04:20:25;;;;;;;6.28;3.10;;;;;;;3.03;100.00;93114.31;2515161;23;20074;-84
2023/03/29 04:21:26;;;;;;;5.00;2.92;;;;;;;3.03;100.00;93119.59;2515577;23;20006;-84
2023/03/29 04:22:27;;;;;;;3.47;2.50;;;;;;;2.99;100.00;93116.94;2515209;23;20272;-84
2023/03/29 04:23:28;;;;;;;3.72;2.75;;;;;;;2.94;100.00;93125.19;2515079;23;20186;-85
2023/03/29 04:24:29;;;;;;;6.75;2.67;;;;;;;2.94;100.00;93119.91;2515253;23;20006;-84
2023/03/29 04:25:31;;;;;;;4.45;2.70;;;;;;;2.95;100.00;93123.31;2515670;23;20006;-85
2023/03/29 04:26:32;;;;;;;6.80;2.80;;;;;;;2.96;100.00;93127.47;2515355;23;20014;-84
2023/03/29 04:27:33;;;;;;;3.33;2.50;;;;;;;2.97;100.00;93127.09;2527364;23;20049;-84
2023/03/29 04:28:34;;;;;;;5.22;3.03;;;;;;;2.94;100.00;93127.06;2515448;23;20658;-85
2023/03/29 04:29:35;;;;;;;6.60;3.47;;;;;;;2.98;100.00;93136.50;2492111;23;20037;-83
2023/03/29 04:30:39;;;;;;;3.97;3.47;;;;;;;2.97;100.00;93129.72;2504549;23;20423;-84
2023/03/29 04:31:40;;;;;;;4.05;3.65;;;;;;;2.98;100.00;93125.94;2492589;23;20502;-84
2023/03/29 04:32:41;;;;;;;8.07;3.47;;;;;;;2.97;100.00;93129.72;2493235;23;20059;-83
2023/03/29 04:33:45;;;;;;;6.70;3.90;;;;;;;3.00;100.00;93136.16;2492267;23;20097;-84
2023/03/29 04:34:46;;;;;;;8.20;4.32;;;;;;;3.01;100.00;93130.50;2493708;23;20482;-85
2023/03/29 04:35:47;;;;;;;6.28;4.03;;;;;;;2.98;100.00;93125.19;2504104;23;20006;-85
2023/03/29 04:36:50;;;;;;;8.85;5.35;;;;;;;2.97;100.00;93121.81;2515670;23;20034;-84
2023/03/29 04:37:53;;;;;;;6.05;4.60;;;;;;;2.98;100.00;93128.59;2505118;23;20007;-84
2023/03/29 04:38:54;;;;;;;5.82;4.32;;;;;;;2.96;100.00;93116.91;2516695;23;19999;-84
2023/03/29 04:39:56;;;;;;;6.28;4.30;;;;;;;2.96;100.00;93124.81;2516180;23;20010;-84
2023/03/29 04:40:59;;;;;;;7.93;4.28;;;;;;;2.98;100.00;93127.84;2516371;23;20007;-85
2023/03/29 04:42:02;;;;;;;5.05;4.20;;;;;;;2.98;100.00;93125.94;2504434;23;20007;-85
2023/03/29 04:43:03;;;;;;;6.03;3.78;;;;;;;2.98;100.00;93128.59;2504287;23;20013;-83
2023/03/29 04:44:05;;;;;;;4.88;4.18;;;;;;;2.96;100.00;93125.56;2516436;23;20115;-84
2023/03/29 04:45:06;;;;;;;7.60;4.55;;;;;;;3.00;100.00;93125.59;2516203;23;20418;-85
2023/03/29 04:46:07;;;;;;;7.55;4.43;;;;;;;2.99;100.00;93121.47;2528083;23;20085;-85
2023/03/29 04:47:12;;;;;;;10.10;4.50;;;;;;;2.99;100.00;93124.09;2515598;23;20006;-85
2023/03/29 04:48:13;;;;;;;5.10;3.38;;;;;;;3.01;100.00;93124.47;2516367;23;20342;-84
2023/03/29 04:49:15;;;;;;;8.02;4.93;;;;;;;2.95;100.00;93124.06;2504281;23;20010;-84
2023/03/29 04:50:18;;;;;;;3.88;3.30;;;;;;;2.93;100.00;93122.91;2504832;23;20125;-84
2023/03/29 04:51:21;;;;;;;5.55;3.35;;;;;;;2.96;100.00;93117.66;2516868;23;20006;-85
2023/03/29 04:52:22;;;;;;;6.72;3.50;;;;;;;2.99;100.00;93110.91;2528154;23;20013;-85
2023/03/29 04:53:23;;;;;;;7.47;4.13;;;;;;;2.93;100.00;93113.09;2515439;23;20017;-85
2023/03/29 04:54:24;;;;;;;6.78;3.35;;;;;;;3.02;100.00;93110.91;2516161;23;20152;-85
2023/03/29 04:55:25;;;;;;;6.03;4.18;;;;;;;3.02;100.00;93123.34;2504171;23;20018;-84
2023/03/29 04:56:26;;;;;;;7.55;5.20;;;;;;;3.10;100.00;93121.50;2516625;23;20057;-85
2023/03/29 04:57:28;;;;;;;5.00;3.78;;;;;;;3.08;100.00;93119.25;2503859;23;20006;-85
2023/03/29 04:58:29;;;;;;;5.53;3.45;;;;;;;3.06;100.00;93116.19;2504344;23;20067;-84
2023/03/29 04:59:31;;;;;;;9.48;4.40;;;;;;;3.02;100.00;93118.06;2491807;23;20011;-85
2023/03/29 05:00:32;;;;;;;5.20;4.28;;;;;;;2.97;100.00;93110.50;2492963;23;20118;-85
2023/03/29 05:01:33;;;;;;;7.78;4.35;;;;;;;2.99;100.00;93111.66;2504833;23;20011;-85
2023/03/29 05:02:35;;;;;;;6.80;4.00;;;;;;;3.01;100.00;93114.66;2504774;23;20017;-87
2023/03/29 05:03:36;;;;;;;6.05;3.85;;;;;;;3.02;100.00;93116.19;2504720;23;20042;-85
2023/03/29 05:04:37;;;;;;;5.90;3.95;;;;;;;2.99;100.00;93116.19;2492724;23;20060;-85
2023/03/29 05:05:38;;;;;;;6.25;3.63;;;;;;;2.98;100.00;93114.63;2492742;23;20058;-85